sensor_id;sensor_type;location;lat;lon;timestamp;P1;durP1;ratioP1;P2;durP2;ratioP2
76167;SDS011;64927;48.214;16.378;2023-10-09T00:00:04;0.90;;;0.80;;
76167;SDS011;64927;48.214;16.378;2023-10-09T00:02:51;1.67;;;0.98;;
76167;SDS011;64927;48.214;16.378;2023-10-09T00:05:19;1.92;;;1.33;;
76167;SDS011;64927;48.214;16.378;2023-10-09T00:07:50;2.05;;;1.08;;
76167;SDS011;64927;48.214;16.378;2023-10-09T00:10:21;2.03;;;1.20;;
76167;SDS011;64927;48.214;16.378;2023-10-09T00:12:47;4.50;;;1.02;;
76167;SDS011;64927;48.214;16.378;2023-10-09T00:15:14;0.98;;;0.75;;
76167;SDS011;64927;48.214;16.378;2023-10-09T00:17:43;2.70;;;1.20;;
76167;SDS011;64927;48.214;16.378;2023-10-09T00:20:12;2.35;;;1.17;;
76167;SDS011;64927;48.214;16.378;2023-10-09T00:22:46;1.92;;;1.13;;
76167;SDS011;64927;48.214;16.378;2023-10-09T00:25:12;1.02;;;0.90;;
76167;SDS011;64927;48.214;16.378;2023-10-09T00:27:46;0.98;;;0.88;;
76167;SDS011;64927;48.214;16.378;2023-10-09T00:30:14;2.15;;;1.05;;
76167;SDS011;64927;48.214;16.378;2023-10-09T00:32:46;1.40;;;0.82;;
76167;SDS011;64927;48.214;16.378;2023-10-09T00:35:26;2.03;;;0.75;;
76167;SDS011;64927;48.214;16.378;2023-10-09T00:38:05;1.55;;;0.77;;
76167;SDS011;64927;48.214;16.378;2023-10-09T00:40:47;0.68;;;0.57;;
76167;SDS011;64927;48.214;16.378;2023-10-09T00:43:27;1.25;;;0.70;;
76167;SDS011;64927;48.214;16.378;2023-10-09T00:45:53;4.30;;;1.13;;
76167;SDS011;64927;48.214;16.378;2023-10-09T00:48:19;2.65;;;1.00;;
76167;SDS011;64927;48.214;16.378;2023-10-09T00:50:55;2.67;;;1.15;;
76167;SDS011;64927;48.214;16.378;2023-10-09T00:53:24;2.75;;;0.75;;
76167;SDS011;64927;48.214;16.378;2023-10-09T00:55:56;2.55;;;0.93;;
76167;SDS011;64927;48.214;16.378;2023-10-09T00:58:44;1.20;;;0.80;;
76167;SDS011;64927;48.214;16.378;2023-10-09T01:01:38;4.63;;;1.40;;
76167;SDS011;64927;48.214;16.378;2023-10-09T01:04:10;2.60;;;1.13;;
76167;SDS011;64927;48.214;16.378;2023-10-09T01:06:44;1.85;;;1.08;;
76167;SDS011;64927;48.214;16.378;2023-10-09T01:09:12;3.92;;;1.38;;
76167;SDS011;64927;48.214;16.378;2023-10-09T01:11:39;1.83;;;0.90;;
76167;SDS011;64927;48.214;16.378;2023-10-09T01:14:15;3.22;;;1.63;;
76167;SDS011;64927;48.214;16.378;2023-10-09T01:16:41;1.30;;;0.63;;
76167;SDS011;64927;48.214;16.378;2023-10-09T01:19:08;1.63;;;0.75;;
76167;SDS011;64927;48.214;16.378;2023-10-09T01:21:53;3.58;;;0.88;;
76167;SDS011;64927;48.214;16.378;2023-10-09T01:24:19;2.80;;;1.25;;
76167;SDS011;64927;48.214;16.378;2023-10-09T01:26:46;2.40;;;1.38;;
76167;SDS011;64927;48.214;16.378;2023-10-09T01:29:20;4.95;;;1.38;;
76167;SDS011;64927;48.214;16.378;2023-10-09T01:31:53;2.00;;;0.98;;
76167;SDS011;64927;48.214;16.378;2023-10-09T01:34:27;4.65;;;1.48;;
76167;SDS011;64927;48.214;16.378;2023-10-09T01:37:12;2.47;;;1.42;;
76167;SDS011;64927;48.214;16.378;2023-10-09T01:39:47;1.65;;;1.10;;
76167;SDS011;64927;48.214;16.378;2023-10-09T01:42:14;1.65;;;0.85;;
76167;SDS011;64927;48.214;16.378;2023-10-09T01:45:01;2.15;;;1.05;;
76167;SDS011;64927;48.214;16.378;2023-10-09T01:47:48;1.60;;;0.85;;
76167;SDS011;64927;48.214;16.378;2023-10-09T01:50:18;2.08;;;1.42;;
76167;SDS011;64927;48.214;16.378;2023-10-09T01:52:47;3.13;;;1.15;;
76167;SDS011;64927;48.214;16.378;2023-10-09T01:55:12;1.95;;;1.08;;
76167;SDS011;64927;48.214;16.378;2023-10-09T01:58:13;3.78;;;0.88;;
76167;SDS011;64927;48.214;16.378;2023-10-09T02:00:49;2.90;;;0.88;;
76167;SDS011;64927;48.214;16.378;2023-10-09T02:03:21;3.85;;;1.00;;
76167;SDS011;64927;48.214;16.378;2023-10-09T02:05:54;2.22;;;1.10;;
76167;SDS011;64927;48.214;16.378;2023-10-09T02:08:28;3.75;;;1.77;;
76167;SDS011;64927;48.214;16.378;2023-10-09T02:10:55;1.52;;;0.82;;
76167;SDS011;64927;48.214;16.378;2023-10-09T02:13:23;2.75;;;0.90;;
76167;SDS011;64927;48.214;16.378;2023-10-09T02:15:55;1.88;;;1.00;;
76167;SDS011;64927;48.214;16.378;2023-10-09T02:18:38;1.00;;;0.77;;
76167;SDS011;64927;48.214;16.378;2023-10-09T02:21:18;1.95;;;0.70;;
76167;SDS011;64927;48.214;16.378;2023-10-09T02:23:57;6.97;;;3.47;;
76167;SDS011;64927;48.214;16.378;2023-10-09T02:26:27;1.52;;;0.90;;
76167;SDS011;64927;48.214;16.378;2023-10-09T02:29:04;1.25;;;0.70;;
76167;SDS011;64927;48.214;16.378;2023-10-09T02:31:39;2.55;;;1.05;;
76167;SDS011;64927;48.214;16.378;2023-10-09T02:34:06;1.80;;;0.98;;
76167;SDS011;64927;48.214;16.378;2023-10-09T02:36:38;1.98;;;1.20;;
76167;SDS011;64927;48.214;16.378;2023-10-09T02:39:08;1.23;;;0.63;;
76167;SDS011;64927;48.214;16.378;2023-10-09T02:41:55;1.27;;;0.82;;
76167;SDS011;64927;48.214;16.378;2023-10-09T02:44:45;1.27;;;0.77;;
76167;SDS011;64927;48.214;16.378;2023-10-09T02:47:20;1.33;;;0.90;;
76167;SDS011;64927;48.214;16.378;2023-10-09T02:49:49;1.65;;;1.10;;
76167;SDS011;64927;48.214;16.378;2023-10-09T02:52:16;1.73;;;1.10;;
76167;SDS011;64927;48.214;16.378;2023-10-09T02:54:50;1.52;;;1.00;;
76167;SDS011;64927;48.214;16.378;2023-10-09T02:57:24;1.85;;;0.98;;
76167;SDS011;64927;48.214;16.378;2023-10-09T02:59:53;1.95;;;0.98;;
76167;SDS011;64927;48.214;16.378;2023-10-09T03:02:19;0.88;;;0.68;;
76167;SDS011;64927;48.214;16.378;2023-10-09T03:04:49;0.95;;;0.50;;
76167;SDS011;64927;48.214;16.378;2023-10-09T03:07:14;0.65;;;0.63;;
76167;SDS011;64927;48.214;16.378;2023-10-09T03:09:40;1.67;;;0.90;;
76167;SDS011;64927;48.214;16.378;2023-10-09T03:12:06;4.82;;;0.98;;
76167;SDS011;64927;48.214;16.378;2023-10-09T03:14:35;1.70;;;1.08;;
76167;SDS011;64927;48.214;16.378;2023-10-09T03:17:06;1.95;;;0.90;;
76167;SDS011;64927;48.214;16.378;2023-10-09T03:19:36;1.40;;;0.90;;
76167;SDS011;64927;48.214;16.378;2023-10-09T03:22:07;1.20;;;0.80;;
76167;SDS011;64927;48.214;16.378;2023-10-09T03:24:35;2.00;;;1.10;;
76167;SDS011;64927;48.214;16.378;2023-10-09T03:27:02;1.60;;;1.13;;
76167;SDS011;64927;48.214;16.378;2023-10-09T03:29:28;2.00;;;1.30;;
76167;SDS011;64927;48.214;16.378;2023-10-09T03:31:53;1.90;;;1.20;;
76167;SDS011;64927;48.214;16.378;2023-10-09T03:34:21;2.13;;;0.93;;
76167;SDS011;64927;48.214;16.378;2023-10-09T03:36:49;2.10;;;1.30;;
76167;SDS011;64927;48.214;16.378;2023-10-09T03:39:24;2.35;;;1.38;;
76167;SDS011;64927;48.214;16.378;2023-10-09T03:41:59;5.88;;;1.58;;
76167;SDS011;64927;48.214;16.378;2023-10-09T03:44:25;2.53;;;1.58;;
76167;SDS011;64927;48.214;16.378;2023-10-09T03:46:54;2.22;;;1.30;;
76167;SDS011;64927;48.214;16.378;2023-10-09T03:49:22;2.28;;;1.50;;
76167;SDS011;64927;48.214;16.378;2023-10-09T03:51:51;4.20;;;1.55;;
76167;SDS011;64927;48.214;16.378;2023-10-09T03:54:17;3.50;;;1.50;;
76167;SDS011;64927;48.214;16.378;2023-10-09T03:56:45;1.92;;;1.40;;
76167;SDS011;64927;48.214;16.378;2023-10-09T03:59:15;2.33;;;1.27;;
76167;SDS011;64927;48.214;16.378;2023-10-09T04:01:49;3.42;;;1.60;;
76167;SDS011;64927;48.214;16.378;2023-10-09T04:04:18;2.45;;;1.42;;
76167;SDS011;64927;48.214;16.378;2023-10-09T04:06:49;2.85;;;1.80;;
76167;SDS011;64927;48.214;16.378;2023-10-09T04:09:16;3.53;;;1.55;;
76167;SDS011;64927;48.214;16.378;2023-10-09T04:11:54;2.58;;;1.20;;
76167;SDS011;64927;48.214;16.378;2023-10-09T04:14:35;1.75;;;1.27;;
76167;SDS011;64927;48.214;16.378;2023-10-09T04:17:01;2.63;;;1.10;;
76167;SDS011;64927;48.214;16.378;2023-10-09T04:19:49;2.40;;;1.35;;
76167;SDS011;64927;48.214;16.378;2023-10-09T04:22:37;2.67;;;1.30;;
76167;SDS011;64927;48.214;16.378;2023-10-09T04:25:19;2.20;;;1.10;;
76167;SDS011;64927;48.214;16.378;2023-10-09T04:27:53;1.88;;;0.95;;
76167;SDS011;64927;48.214;16.378;2023-10-09T04:30:33;1.95;;;1.42;;
76167;SDS011;64927;48.214;16.378;2023-10-09T04:33:05;2.08;;;1.15;;
76167;SDS011;64927;48.214;16.378;2023-10-09T04:35:36;2.15;;;1.30;;
76167;SDS011;64927;48.214;16.378;2023-10-09T04:38:03;4.75;;;1.50;;
76167;SDS011;64927;48.214;16.378;2023-10-09T04:40:31;3.13;;;1.23;;
76167;SDS011;64927;48.214;16.378;2023-10-09T04:43:13;1.65;;;0.93;;
76167;SDS011;64927;48.214;16.378;2023-10-09T04:45:45;4.38;;;1.15;;
76167;SDS011;64927;48.214;16.378;2023-10-09T04:48:30;2.42;;;1.17;;
76167;SDS011;64927;48.214;16.378;2023-10-09T04:51:03;2.72;;;1.40;;
76167;SDS011;64927;48.214;16.378;2023-10-09T04:53:47;2.00;;;1.05;;
76167;SDS011;64927;48.214;16.378;2023-10-09T04:56:25;2.08;;;1.00;;
76167;SDS011;64927;48.214;16.378;2023-10-09T04:58:56;2.00;;;1.38;;
76167;SDS011;64927;48.214;16.378;2023-10-09T05:01:33;1.95;;;0.85;;
76167;SDS011;64927;48.214;16.378;2023-10-09T05:04:03;1.15;;;0.93;;
76167;SDS011;64927;48.214;16.378;2023-10-09T05:06:49;2.67;;;1.15;;
76167;SDS011;64927;48.214;16.378;2023-10-09T05:09:23;2.50;;;1.15;;
76167;SDS011;64927;48.214;16.378;2023-10-09T05:11:51;3.10;;;1.05;;
76167;SDS011;64927;48.214;16.378;2023-10-09T05:14:17;8.05;;;1.48;;
76167;SDS011;64927;48.214;16.378;2023-10-09T05:16:51;2.58;;;1.48;;
76167;SDS011;64927;48.214;16.378;2023-10-09T05:19:23;1.88;;;1.00;;
76167;SDS011;64927;48.214;16.378;2023-10-09T05:22:10;2.22;;;1.02;;
76167;SDS011;64927;48.214;16.378;2023-10-09T05:24:55;1.90;;;1.08;;
76167;SDS011;64927;48.214;16.378;2023-10-09T05:27:24;3.42;;;1.38;;
76167;SDS011;64927;48.214;16.378;2023-10-09T05:30:10;1.25;;;1.02;;
76167;SDS011;64927;48.214;16.378;2023-10-09T05:32:52;1.73;;;1.10;;
76167;SDS011;64927;48.214;16.378;2023-10-09T05:35:23;1.55;;;0.95;;
76167;SDS011;64927;48.214;16.378;2023-10-09T05:38:05;1.80;;;1.00;;
76167;SDS011;64927;48.214;16.378;2023-10-09T05:40:48;1.35;;;0.77;;
76167;SDS011;64927;48.214;16.378;2023-10-09T05:43:29;2.22;;;0.90;;
76167;SDS011;64927;48.214;16.378;2023-10-09T05:46:27;4.35;;;2.15;;
76167;SDS011;64927;48.214;16.378;2023-10-09T05:49:01;2.80;;;1.50;;
76167;SDS011;64927;48.214;16.378;2023-10-09T05:51:34;2.28;;;1.30;;
76167;SDS011;64927;48.214;16.378;2023-10-09T05:54:06;4.07;;;1.33;;
76167;SDS011;64927;48.214;16.378;2023-10-09T05:56:50;1.75;;;0.90;;
76167;SDS011;64927;48.214;16.378;2023-10-09T05:59:54;2.83;;;1.20;;
76167;SDS011;64927;48.214;16.378;2023-10-09T06:02:38;1.15;;;0.85;;
76167;SDS011;64927;48.214;16.378;2023-10-09T06:05:29;1.50;;;0.90;;
76167;SDS011;64927;48.214;16.378;2023-10-09T06:08:15;1.27;;;1.15;;
76167;SDS011;64927;48.214;16.378;2023-10-09T06:10:49;2.38;;;1.30;;
76167;SDS011;64927;48.214;16.378;2023-10-09T06:13:30;2.25;;;0.80;;
76167;SDS011;64927;48.214;16.378;2023-10-09T06:16:11;1.80;;;1.15;;
76167;SDS011;64927;48.214;16.378;2023-10-09T06:19:06;2.03;;;1.10;;
76167;SDS011;64927;48.214;16.378;2023-10-09T06:21:44;2.85;;;1.30;;
76167;SDS011;64927;48.214;16.378;2023-10-09T06:24:29;2.08;;;0.95;;
76167;SDS011;64927;48.214;16.378;2023-10-09T06:27:06;2.17;;;0.98;;
76167;SDS011;64927;48.214;16.378;2023-10-09T06:29:32;1.88;;;0.70;;
76167;SDS011;64927;48.214;16.378;2023-10-09T06:32:04;0.93;;;0.70;;
76167;SDS011;64927;48.214;16.378;2023-10-09T06:34:45;2.38;;;1.20;;
76167;SDS011;64927;48.214;16.378;2023-10-09T06:37:14;3.47;;;1.23;;
76167;SDS011;64927;48.214;16.378;2023-10-09T06:39:43;2.53;;;1.00;;
76167;SDS011;64927;48.214;16.378;2023-10-09T06:42:15;2.60;;;1.08;;
76167;SDS011;64927;48.214;16.378;2023-10-09T06:45:09;1.58;;;0.98;;
76167;SDS011;64927;48.214;16.378;2023-10-09T06:47:38;3.03;;;0.90;;
76167;SDS011;64927;48.214;16.378;2023-10-09T06:50:10;1.30;;;0.73;;
76167;SDS011;64927;48.214;16.378;2023-10-09T06:52:46;1.15;;;0.80;;
76167;SDS011;64927;48.214;16.378;2023-10-09T06:55:35;2.38;;;1.17;;
76167;SDS011;64927;48.214;16.378;2023-10-09T06:58:13;2.33;;;1.00;;
76167;SDS011;64927;48.214;16.378;2023-10-09T07:00:50;2.03;;;1.35;;
76167;SDS011;64927;48.214;16.378;2023-10-09T07:03:34;1.15;;;0.88;;
76167;SDS011;64927;48.214;16.378;2023-10-09T07:06:04;2.15;;;1.45;;
76167;SDS011;64927;48.214;16.378;2023-10-09T07:08:55;1.52;;;0.90;;
76167;SDS011;64927;48.214;16.378;2023-10-09T07:19:50;1.20;;;0.75;;
76167;SDS011;64927;48.214;16.378;2023-10-09T07:22:20;6.10;;;1.45;;
76167;SDS011;64927;48.214;16.378;2023-10-09T07:24:54;3.95;;;1.85;;
76167;SDS011;64927;48.214;16.378;2023-10-09T07:27:24;2.28;;;0.82;;
76167;SDS011;64927;48.214;16.378;2023-10-09T07:30:10;1.23;;;0.88;;
76167;SDS011;64927;48.214;16.378;2023-10-09T07:35:31;3.50;;;1.10;;
76167;SDS011;64927;48.214;16.378;2023-10-09T07:38:20;2.22;;;1.08;;
76167;SDS011;64927;48.214;16.378;2023-10-09T07:40:50;1.30;;;1.02;;
76167;SDS011;64927;48.214;16.378;2023-10-09T07:43:35;1.67;;;0.88;;
76167;SDS011;64927;48.214;16.378;2023-10-09T07:46:05;3.88;;;0.90;;
76167;SDS011;64927;48.214;16.378;2023-10-09T07:48:54;3.40;;;1.13;;
76167;SDS011;64927;48.214;16.378;2023-10-09T07:51:46;2.20;;;1.20;;
76167;SDS011;64927;48.214;16.378;2023-10-09T07:54:12;2.15;;;1.00;;
76167;SDS011;64927;48.214;16.378;2023-10-09T07:56:40;1.58;;;0.95;;
76167;SDS011;64927;48.214;16.378;2023-10-09T07:59:10;1.67;;;0.85;;
76167;SDS011;64927;48.214;16.378;2023-10-09T08:01:44;2.00;;;0.85;;
76167;SDS011;64927;48.214;16.378;2023-10-09T08:04:24;1.67;;;1.02;;
76167;SDS011;64927;48.214;16.378;2023-10-09T08:07:03;2.75;;;0.93;;
76167;SDS011;64927;48.214;16.378;2023-10-09T08:09:32;1.27;;;0.80;;
76167;SDS011;64927;48.214;16.378;2023-10-09T08:12:16;6.20;;;1.83;;
76167;SDS011;64927;48.214;16.378;2023-10-09T08:15:04;2.28;;;0.95;;
76167;SDS011;64927;48.214;16.378;2023-10-09T08:17:50;1.90;;;1.52;;
76167;SDS011;64927;48.214;16.378;2023-10-09T08:20:37;3.20;;;0.95;;
76167;SDS011;64927;48.214;16.378;2023-10-09T08:23:21;2.42;;;0.98;;
76167;SDS011;64927;48.214;16.378;2023-10-09T08:25:58;1.25;;;0.88;;
76167;SDS011;64927;48.214;16.378;2023-10-09T08:28:37;1.08;;;0.85;;
76167;SDS011;64927;48.214;16.378;2023-10-09T08:31:14;1.55;;;0.82;;
76167;SDS011;64927;48.214;16.378;2023-10-09T08:34:02;1.67;;;0.82;;
76167;SDS011;64927;48.214;16.378;2023-10-09T08:36:34;1.90;;;1.17;;
76167;SDS011;64927;48.214;16.378;2023-10-09T08:39:03;6.07;;;1.60;;
76167;SDS011;64927;48.214;16.378;2023-10-09T08:41:58;1.92;;;1.00;;
76167;SDS011;64927;48.214;16.378;2023-10-09T08:44:26;1.50;;;0.95;;
76167;SDS011;64927;48.214;16.378;2023-10-09T08:46:54;2.38;;;1.05;;
76167;SDS011;64927;48.214;16.378;2023-10-09T08:49:22;4.88;;;1.75;;
76167;SDS011;64927;48.214;16.378;2023-10-09T08:51:53;1.15;;;0.73;;
76167;SDS011;64927;48.214;16.378;2023-10-09T08:54:20;2.80;;;1.27;;
76167;SDS011;64927;48.214;16.378;2023-10-09T08:56:46;1.35;;;1.00;;
76167;SDS011;64927;48.214;16.378;2023-10-09T08:59:14;1.33;;;0.95;;
76167;SDS011;64927;48.214;16.378;2023-10-09T09:01:47;1.67;;;1.00;;
76167;SDS011;64927;48.214;16.378;2023-10-09T09:07:24;1.95;;;1.17;;
76167;SDS011;64927;48.214;16.378;2023-10-09T09:09:57;2.00;;;0.90;;
76167;SDS011;64927;48.214;16.378;2023-10-09T09:12:29;3.55;;;1.35;;
76167;SDS011;64927;48.214;16.378;2023-10-09T09:15:02;1.77;;;1.27;;
76167;SDS011;64927;48.214;16.378;2023-10-09T09:17:31;3.67;;;1.02;;
76167;SDS011;64927;48.214;16.378;2023-10-09T09:20:22;1.75;;;1.05;;
76167;SDS011;64927;48.214;16.378;2023-10-09T09:22:57;3.17;;;0.90;;
76167;SDS011;64927;48.214;16.378;2023-10-09T09:25:23;3.58;;;1.42;;
76167;SDS011;64927;48.214;16.378;2023-10-09T09:28:03;3.50;;;1.42;;
76167;SDS011;64927;48.214;16.378;2023-10-09T09:30:35;4.60;;;1.73;;
76167;SDS011;64927;48.214;16.378;2023-10-09T09:33:16;3.53;;;1.45;;
76167;SDS011;64927;48.214;16.378;2023-10-09T09:36:08;1.90;;;0.80;;
76167;SDS011;64927;48.214;16.378;2023-10-09T09:38:36;1.80;;;0.75;;
76167;SDS011;64927;48.214;16.378;2023-10-09T09:41:19;1.20;;;0.70;;
76167;SDS011;64927;48.214;16.378;2023-10-09T09:43:54;1.80;;;1.25;;
76167;SDS011;64927;48.214;16.378;2023-10-09T09:46:24;1.88;;;0.90;;
76167;SDS011;64927;48.214;16.378;2023-10-09T09:48:59;2.67;;;1.25;;
76167;SDS011;64927;48.214;16.378;2023-10-09T09:51:41;2.60;;;1.23;;
76167;SDS011;64927;48.214;16.378;2023-10-09T09:54:11;3.65;;;1.50;;
76167;SDS011;64927;48.214;16.378;2023-10-09T09:56:47;2.35;;;1.15;;
76167;SDS011;64927;48.214;16.378;2023-10-09T09:59:15;3.40;;;0.95;;
76167;SDS011;64927;48.214;16.378;2023-10-09T10:02:03;3.17;;;1.02;;
76167;SDS011;64927;48.214;16.378;2023-10-09T10:04:32;5.25;;;1.65;;
76167;SDS011;64927;48.214;16.378;2023-10-09T10:07:01;2.47;;;1.35;;
76167;SDS011;64927;48.214;16.378;2023-10-09T10:09:37;3.55;;;1.67;;
76167;SDS011;64927;48.214;16.378;2023-10-09T10:12:06;3.47;;;1.40;;
76167;SDS011;64927;48.214;16.378;2023-10-09T10:14:55;2.42;;;1.67;;
76167;SDS011;64927;48.214;16.378;2023-10-09T10:17:24;2.95;;;0.90;;
76167;SDS011;64927;48.214;16.378;2023-10-09T10:20:07;2.70;;;1.73;;
76167;SDS011;64927;48.214;16.378;2023-10-09T10:22:44;2.55;;;1.25;;
76167;SDS011;64927;48.214;16.378;2023-10-09T10:25:32;3.75;;;1.00;;
76167;SDS011;64927;48.214;16.378;2023-10-09T10:28:15;2.33;;;0.98;;
76167;SDS011;64927;48.214;16.378;2023-10-09T10:31:05;4.68;;;1.23;;
76167;SDS011;64927;48.214;16.378;2023-10-09T10:36:21;3.83;;;0.93;;
76167;SDS011;64927;48.214;16.378;2023-10-09T10:38:51;2.67;;;1.17;;
76167;SDS011;64927;48.214;16.378;2023-10-09T10:41:52;1.77;;;1.00;;
76167;SDS011;64927;48.214;16.378;2023-10-09T10:44:32;2.38;;;1.13;;
76167;SDS011;64927;48.214;16.378;2023-10-09T10:47:01;2.53;;;1.77;;
76167;SDS011;64927;48.214;16.378;2023-10-09T10:49:29;1.85;;;1.15;;
76167;SDS011;64927;48.214;16.378;2023-10-09T10:52:05;2.25;;;1.30;;
76167;SDS011;64927;48.214;16.378;2023-10-09T10:54:43;2.65;;;1.25;;
76167;SDS011;64927;48.214;16.378;2023-10-09T10:57:18;2.10;;;1.10;;
76167;SDS011;64927;48.214;16.378;2023-10-09T10:59:45;1.60;;;0.98;;
76167;SDS011;64927;48.214;16.378;2023-10-09T11:02:11;1.27;;;1.00;;
76167;SDS011;64927;48.214;16.378;2023-10-09T11:04:37;4.72;;;2.35;;
76167;SDS011;64927;48.214;16.378;2023-10-09T11:07:10;2.33;;;1.50;;
76167;SDS011;64927;48.214;16.378;2023-10-09T11:12:26;1.70;;;1.10;;
76167;SDS011;64927;48.214;16.378;2023-10-09T11:15:04;2.72;;;1.35;;
76167;SDS011;64927;48.214;16.378;2023-10-09T11:18:06;5.07;;;1.20;;
76167;SDS011;64927;48.214;16.378;2023-10-09T11:20:33;3.40;;;1.02;;
76167;SDS011;64927;48.214;16.378;2023-10-09T11:23:01;3.55;;;1.50;;
76167;SDS011;64927;48.214;16.378;2023-10-09T11:25:37;1.25;;;0.88;;
76167;SDS011;64927;48.214;16.378;2023-10-09T11:31:06;3.65;;;1.10;;
76167;SDS011;64927;48.214;16.378;2023-10-09T11:33:51;4.95;;;1.55;;
76167;SDS011;64927;48.214;16.378;2023-10-09T11:36:17;1.73;;;1.13;;
76167;SDS011;64927;48.214;16.378;2023-10-09T11:38:59;4.95;;;1.50;;
76167;SDS011;64927;48.214;16.378;2023-10-09T11:41:39;5.40;;;1.63;;
76167;SDS011;64927;48.214;16.378;2023-10-09T11:44:07;3.50;;;1.42;;
76167;SDS011;64927;48.214;16.378;2023-10-09T11:46:59;2.80;;;1.63;;
76167;SDS011;64927;48.214;16.378;2023-10-09T11:49:57;3.08;;;1.65;;
76167;SDS011;64927;48.214;16.378;2023-10-09T11:52:30;2.00;;;1.05;;
76167;SDS011;64927;48.214;16.378;2023-10-09T11:55:02;7.63;;;1.35;;
76167;SDS011;64927;48.214;16.378;2023-10-09T11:57:32;2.47;;;0.95;;
76167;SDS011;64927;48.214;16.378;2023-10-09T12:00:00;3.45;;;1.30;;
76167;SDS011;64927;48.214;16.378;2023-10-09T12:02:36;4.10;;;1.23;;
76167;SDS011;64927;48.214;16.378;2023-10-09T12:05:09;2.70;;;1.30;;
76167;SDS011;64927;48.214;16.378;2023-10-09T12:07:42;3.40;;;2.15;;
76167;SDS011;64927;48.214;16.378;2023-10-09T12:10:09;2.67;;;1.92;;
76167;SDS011;64927;48.214;16.378;2023-10-09T12:12:36;10.55;;;1.55;;
76167;SDS011;64927;48.214;16.378;2023-10-09T12:15:02;4.90;;;1.75;;
76167;SDS011;64927;48.214;16.378;2023-10-09T12:17:31;11.70;;;4.60;;
76167;SDS011;64927;48.214;16.378;2023-10-09T12:19:58;6.88;;;3.15;;
76167;SDS011;64927;48.214;16.378;2023-10-09T12:22:23;4.82;;;1.85;;
76167;SDS011;64927;48.214;16.378;2023-10-09T12:24:52;5.70;;;2.30;;
76167;SDS011;64927;48.214;16.378;2023-10-09T12:27:19;4.32;;;2.42;;
76167;SDS011;64927;48.214;16.378;2023-10-09T12:29:46;5.00;;;1.98;;
76167;SDS011;64927;48.214;16.378;2023-10-09T12:32:13;5.40;;;2.05;;
76167;SDS011;64927;48.214;16.378;2023-10-09T12:34:44;4.50;;;1.75;;
76167;SDS011;64927;48.214;16.378;2023-10-09T12:37:10;7.35;;;2.83;;
76167;SDS011;64927;48.214;16.378;2023-10-09T12:39:37;5.25;;;2.15;;
76167;SDS011;64927;48.214;16.378;2023-10-09T12:42:05;4.65;;;2.00;;
76167;SDS011;64927;48.214;16.378;2023-10-09T12:44:38;7.35;;;2.55;;
76167;SDS011;64927;48.214;16.378;2023-10-09T12:47:07;6.25;;;2.17;;
76167;SDS011;64927;48.214;16.378;2023-10-09T12:49:37;9.85;;;3.30;;
76167;SDS011;64927;48.214;16.378;2023-10-09T12:52:06;7.38;;;2.45;;
76167;SDS011;64927;48.214;16.378;2023-10-09T12:54:44;3.05;;;1.77;;
76167;SDS011;64927;48.214;16.378;2023-10-09T12:57:13;3.10;;;1.70;;
76167;SDS011;64927;48.214;16.378;2023-10-09T12:59:42;5.70;;;1.98;;
76167;SDS011;64927;48.214;16.378;2023-10-09T13:02:13;6.97;;;3.35;;
76167;SDS011;64927;48.214;16.378;2023-10-09T13:04:56;5.03;;;1.80;;
76167;SDS011;64927;48.214;16.378;2023-10-09T13:07:22;4.03;;;1.75;;
76167;SDS011;64927;48.214;16.378;2023-10-09T13:09:50;3.75;;;2.22;;
76167;SDS011;64927;48.214;16.378;2023-10-09T13:12:34;3.53;;;1.60;;
76167;SDS011;64927;48.214;16.378;2023-10-09T13:15:06;5.55;;;1.58;;
76167;SDS011;64927;48.214;16.378;2023-10-09T13:17:37;4.50;;;1.88;;
76167;SDS011;64927;48.214;16.378;2023-10-09T13:20:06;3.13;;;1.65;;
76167;SDS011;64927;48.214;16.378;2023-10-09T13:22:39;3.30;;;1.80;;
76167;SDS011;64927;48.214;16.378;2023-10-09T13:25:09;2.85;;;1.65;;
76167;SDS011;64927;48.214;16.378;2023-10-09T13:27:42;4.47;;;2.17;;
76167;SDS011;64927;48.214;16.378;2023-10-09T13:30:18;4.95;;;2.45;;
76167;SDS011;64927;48.214;16.378;2023-10-09T13:32:49;4.10;;;2.22;;
76167;SDS011;64927;48.214;16.378;2023-10-09T13:35:17;7.20;;;2.63;;
76167;SDS011;64927;48.214;16.378;2023-10-09T13:37:52;6.53;;;2.15;;
76167;SDS011;64927;48.214;16.378;2023-10-09T13:40:21;9.35;;;2.45;;
76167;SDS011;64927;48.214;16.378;2023-10-09T13:42:55;4.05;;;1.90;;
76167;SDS011;64927;48.214;16.378;2023-10-09T13:45:28;3.80;;;1.50;;
76167;SDS011;64927;48.214;16.378;2023-10-09T13:47:56;5.70;;;2.58;;
76167;SDS011;64927;48.214;16.378;2023-10-09T13:50:24;4.55;;;1.80;;
76167;SDS011;64927;48.214;16.378;2023-10-09T13:52:58;2.67;;;2.03;;
76167;SDS011;64927;48.214;16.378;2023-10-09T13:55:24;9.50;;;3.03;;
76167;SDS011;64927;48.214;16.378;2023-10-09T13:58:08;4.75;;;2.15;;
76167;SDS011;64927;48.214;16.378;2023-10-09T14:00:39;6.80;;;2.08;;
76167;SDS011;64927;48.214;16.378;2023-10-09T14:03:09;3.05;;;1.67;;
76167;SDS011;64927;48.214;16.378;2023-10-09T14:05:38;4.05;;;2.33;;
76167;SDS011;64927;48.214;16.378;2023-10-09T14:08:17;4.72;;;2.28;;
76167;SDS011;64927;48.214;16.378;2023-10-09T14:10:44;8.18;;;3.08;;
76167;SDS011;64927;48.214;16.378;2023-10-09T14:13:13;4.35;;;2.47;;
76167;SDS011;64927;48.214;16.378;2023-10-09T14:15:39;5.80;;;2.35;;
76167;SDS011;64927;48.214;16.378;2023-10-09T14:18:09;6.80;;;3.38;;
76167;SDS011;64927;48.214;16.378;2023-10-09T14:20:39;3.30;;;1.92;;
76167;SDS011;64927;48.214;16.378;2023-10-09T14:23:06;5.90;;;2.25;;
76167;SDS011;64927;48.214;16.378;2023-10-09T14:25:34;5.80;;;2.17;;
76167;SDS011;64927;48.214;16.378;2023-10-09T14:28:07;6.18;;;2.05;;
76167;SDS011;64927;48.214;16.378;2023-10-09T14:30:36;8.93;;;2.53;;
76167;SDS011;64927;48.214;16.378;2023-10-09T14:33:08;8.48;;;3.88;;
76167;SDS011;64927;48.214;16.378;2023-10-09T14:35:47;5.68;;;2.33;;
76167;SDS011;64927;48.214;16.378;2023-10-09T14:38:14;9.27;;;1.85;;
76167;SDS011;64927;48.214;16.378;2023-10-09T14:40:43;3.30;;;1.55;;
76167;SDS011;64927;48.214;16.378;2023-10-09T14:43:10;7.00;;;2.63;;
76167;SDS011;64927;48.214;16.378;2023-10-09T14:45:52;6.88;;;2.50;;
76167;SDS011;64927;48.214;16.378;2023-10-09T14:48:21;6.30;;;2.65;;
76167;SDS011;64927;48.214;16.378;2023-10-09T14:50:53;4.47;;;2.22;;
76167;SDS011;64927;48.214;16.378;2023-10-09T14:53:20;7.68;;;2.75;;
76167;SDS011;64927;48.214;16.378;2023-10-09T14:55:53;5.13;;;1.95;;
76167;SDS011;64927;48.214;16.378;2023-10-09T14:58:19;6.00;;;2.38;;
76167;SDS011;64927;48.214;16.378;2023-10-09T15:00:45;3.70;;;1.83;;
76167;SDS011;64927;48.214;16.378;2023-10-09T15:03:13;4.35;;;2.03;;
76167;SDS011;64927;48.214;16.378;2023-10-09T15:05:44;3.00;;;1.85;;
76167;SDS011;64927;48.214;16.378;2023-10-09T15:08:16;4.40;;;1.83;;
76167;SDS011;64927;48.214;16.378;2023-10-09T15:10:49;6.95;;;2.10;;
76167;SDS011;64927;48.214;16.378;2023-10-09T15:13:21;2.83;;;1.95;;
76167;SDS011;64927;48.214;16.378;2023-10-09T15:15:52;4.60;;;1.83;;
76167;SDS011;64927;48.214;16.378;2023-10-09T15:18:20;8.55;;;2.42;;
76167;SDS011;64927;48.214;16.378;2023-10-09T15:20:49;7.95;;;3.70;;
76167;SDS011;64927;48.214;16.378;2023-10-09T15:23:16;4.07;;;2.60;;
76167;SDS011;64927;48.214;16.378;2023-10-09T15:25:44;5.32;;;1.83;;
76167;SDS011;64927;48.214;16.378;2023-10-09T15:28:15;6.15;;;2.17;;
76167;SDS011;64927;48.214;16.378;2023-10-09T15:30:42;4.97;;;2.28;;
76167;SDS011;64927;48.214;16.378;2023-10-09T15:33:08;6.05;;;2.85;;
76167;SDS011;64927;48.214;16.378;2023-10-09T15:35:36;4.20;;;2.28;;